createdAt,value
2022-09-05T00:01:54.746Z,19.93
2022-09-05T00:03:34.516Z,19.94
2022-09-05T00:05:14.267Z,19.9
2022-09-05T00:06:54.040Z,19.89
2022-09-05T00:08:33.819Z,19.86
2022-09-05T00:11:53.338Z,19.83
2022-09-05T00:13:33.104Z,19.81
2022-09-05T00:15:12.874Z,19.79
2022-09-05T00:16:52.647Z,19.78
2022-09-05T00:18:32.419Z,19.75
2022-09-05T00:21:51.953Z,19.73
2022-09-05T00:23:31.704Z,19.7
2022-09-05T00:25:11.489Z,19.7
2022-09-05T00:26:51.243Z,19.65
2022-09-05T00:28:31.043Z,19.65
2022-09-05T00:31:50.542Z,19.61
2022-09-05T00:33:30.310Z,19.6
2022-09-05T00:35:10.124Z,19.57
2022-09-05T00:36:49.917Z,19.54
2022-09-05T00:41:49.171Z,19.5
2022-09-05T00:43:28.974Z,19.5
2022-09-05T00:45:08.679Z,19.48
2022-09-05T00:46:48.459Z,19.45
2022-09-05T00:48:28.257Z,19.45
2022-09-05T00:51:47.763Z,19.42
2022-09-05T00:53:27.529Z,19.39
2022-09-05T00:55:07.293Z,19.37
2022-09-05T00:56:47.064Z,19.35
2022-09-05T00:58:26.853Z,19.34
2022-09-05T01:00:06.609Z,19.34
2022-09-05T01:01:46.365Z,19.32
2022-09-05T01:03:26.187Z,19.29
2022-09-05T01:05:05.953Z,19.29
2022-09-05T01:06:45.668Z,19.26
2022-09-05T01:08:25.431Z,19.25
2022-09-05T01:11:44.961Z,19.23
2022-09-05T01:13:24.743Z,19.2
2022-09-05T01:15:04.530Z,19.2
2022-09-05T01:16:44.275Z,19.18
2022-09-05T01:18:24.033Z,19.15
2022-09-05T01:20:03.805Z,19.14
2022-09-05T01:23:23.343Z,19.1
2022-09-05T01:25:03.108Z,19.09
2022-09-05T01:26:42.875Z,19.07
2022-09-05T01:28:22.639Z,19.06
2022-09-05T01:31:42.174Z,19.03
2022-09-05T01:33:21.944Z,19.03
2022-09-05T01:35:01.712Z,19.01
2022-09-05T01:36:41.490Z,19
2022-09-05T01:38:21.249Z,18.96
2022-09-05T01:41:40.793Z,18.94
2022-09-05T01:43:20.604Z,18.94
2022-09-05T01:45:00.357Z,18.92
2022-09-05T01:46:40.129Z,18.9
2022-09-05T01:48:19.898Z,18.89
2022-09-05T01:49:59.656Z,18.87
2022-09-05T01:51:39.420Z,18.85
2022-09-05T01:53:19.194Z,18.84
2022-09-05T01:54:58.953Z,18.82
2022-09-05T01:56:38.702Z,18.83
2022-09-05T01:58:18.488Z,18.79
2022-09-05T02:01:38.005Z,18.77
2022-09-05T02:03:17.768Z,18.75
2022-09-05T02:04:57.529Z,18.73
2022-09-05T02:06:37.308Z,18.73
2022-09-05T02:08:17.063Z,18.71
2022-09-05T02:11:36.623Z,18.69
2022-09-05T02:13:16.356Z,18.66
2022-09-05T02:14:56.128Z,18.64
2022-09-05T02:16:35.905Z,18.62
2022-09-05T02:18:15.664Z,18.62
2022-09-05T02:21:35.207Z,18.59
2022-09-05T02:23:14.977Z,18.57
2022-09-05T02:24:54.760Z,18.56
2022-09-05T02:26:34.537Z,18.54
2022-09-05T02:28:14.279Z,18.54
2022-09-05T02:31:33.827Z,18.51
2022-09-05T02:33:13.613Z,18.51
2022-09-05T02:34:53.357Z,18.5
2022-09-05T02:36:33.113Z,18.49
2022-09-05T02:38:12.883Z,18.46
2022-09-05T02:41:32.412Z,18.44
2022-09-05T02:43:12.179Z,18.42
2022-09-05T02:44:51.949Z,18.4
2022-09-05T02:46:31.705Z,18.39
2022-09-05T02:48:11.489Z,18.37
2022-09-05T02:51:31.013Z,18.34
2022-09-05T02:53:10.800Z,18.33
2022-09-05T02:54:50.563Z,18.32
2022-09-05T02:58:10.082Z,18.28
2022-09-05T03:01:29.644Z,18.26
2022-09-05T03:03:09.384Z,18.24
2022-09-05T03:04:49.160Z,18.26
2022-09-05T03:06:28.915Z,18.23
2022-09-05T03:08:08.688Z,18.2
2022-09-05T03:11:28.224Z,18.19
2022-09-05T03:13:07.995Z,18.19
2022-09-05T03:14:47.756Z,18.17
2022-09-05T03:16:27.524Z,18.15
2022-09-05T03:18:07.293Z,18.12
2022-09-05T03:19:47.080Z,18.12
2022-09-05T03:21:26.820Z,18.12
2022-09-05T03:23:06.605Z,18.09
2022-09-05T03:24:46.367Z,18.1
2022-09-05T03:28:05.893Z,18.06
2022-09-05T03:31:25.440Z,18.04
2022-09-05T03:33:05.204Z,18.01
2022-09-05T03:34:44.977Z,18
2022-09-05T03:36:24.742Z,18
2022-09-05T03:38:04.504Z,17.96
2022-09-05T03:41:24.040Z,17.95
2022-09-05T03:43:03.813Z,17.95
2022-09-05T03:44:43.572Z,17.92
2022-09-05T03:46:23.337Z,17.91
2022-09-05T03:48:03.104Z,17.89
2022-09-05T03:51:22.639Z,17.89
2022-09-05T03:53:02.409Z,17.87
2022-09-05T03:54:42.177Z,17.85
2022-09-05T03:56:21.937Z,17.84
2022-09-05T03:58:01.699Z,17.84
2022-09-05T03:59:41.479Z,17.82
2022-09-05T04:01:21.235Z,17.81
2022-09-05T04:03:01.001Z,17.78
2022-09-05T04:04:40.760Z,17.79
2022-09-05T04:06:20.531Z,17.79
2022-09-05T04:08:00.294Z,17.82
2022-09-05T04:12:59.573Z,17.89
2022-09-05T04:16:19.103Z,17.87
2022-09-05T04:17:58.873Z,17.87
2022-09-05T04:21:18.398Z,17.91
2022-09-05T04:22:58.172Z,17.9
2022-09-05T04:24:37.928Z,17.92
2022-09-05T04:26:17.694Z,17.92
2022-09-05T04:27:57.469Z,17.93
2022-09-05T04:31:16.991Z,17.92
2022-09-05T04:32:56.764Z,17.93
2022-09-05T04:34:36.525Z,17.93
2022-09-05T04:36:16.279Z,17.95
2022-09-05T04:37:56.046Z,17.96
2022-09-05T04:41:15.583Z,17.95
2022-09-05T04:42:55.338Z,17.95
2022-09-05T04:44:35.108Z,17.95
2022-09-05T04:46:14.879Z,17.95
2022-09-05T04:47:54.639Z,17.95
2022-09-05T04:51:14.182Z,17.95
2022-09-05T04:52:53.967Z,17.94
2022-09-05T04:54:33.735Z,17.95
2022-09-05T04:56:13.482Z,17.98
2022-09-05T04:57:53.284Z,17.98
2022-09-05T04:59:33.015Z,17.99
2022-09-05T05:01:12.799Z,17.96
2022-09-05T05:02:52.556Z,17.95
2022-09-05T05:04:32.318Z,17.95
2022-09-05T05:07:51.861Z,17.96
2022-09-05T05:11:11.393Z,17.96
2022-09-05T05:12:51.166Z,17.98
2022-09-05T05:14:30.936Z,17.95
2022-09-05T05:16:10.718Z,18
2022-09-05T05:17:50.480Z,17.96
2022-09-05T05:19:30.257Z,18.01
2022-09-05T05:21:10.024Z,18
2022-09-05T05:22:49.786Z,17.99
2022-09-05T05:24:29.564Z,18
2022-09-05T05:26:09.323Z,17.99
2022-09-05T05:27:49.121Z,18
2022-09-05T05:31:08.645Z,18.02
2022-09-05T05:32:48.404Z,18
2022-09-05T05:34:28.179Z,18.01
2022-09-05T05:37:47.706Z,18.02
2022-09-05T05:41:07.251Z,18.02
2022-09-05T05:42:47.025Z,18.04
2022-09-05T05:44:26.787Z,18.06
2022-09-05T05:46:06.559Z,18.06
2022-09-05T05:47:46.335Z,18.06
2022-09-05T05:49:26.093Z,18.08
2022-09-05T05:51:05.859Z,18.06
2022-09-05T05:52:45.628Z,18.06
2022-09-05T05:54:25.435Z,18.08
2022-09-05T05:56:05.199Z,18.08
2022-09-05T05:57:44.967Z,18.07
2022-09-05T06:01:04.473Z,18.06
2022-09-05T06:02:44.269Z,18.07
2022-09-05T06:04:24.025Z,18.09
2022-09-05T06:07:43.566Z,18.17
2022-09-05T06:11:03.107Z,18.28
2022-09-05T06:12:42.867Z,18.33
2022-09-05T06:14:22.647Z,18.4
2022-09-05T06:16:02.407Z,18.44
2022-09-05T06:17:42.175Z,18.49
2022-09-05T06:21:01.724Z,18.62
2022-09-05T06:22:41.481Z,18.7
2022-09-05T06:24:21.289Z,18.77
2022-09-05T06:26:01.020Z,18.84
2022-09-05T06:27:40.798Z,18.91
2022-09-05T06:31:00.346Z,19.03
2022-09-05T06:32:40.109Z,19.04
2022-09-05T06:34:19.869Z,19.12
2022-09-05T06:35:59.647Z,19.19
2022-09-05T06:37:39.441Z,19.2
2022-09-05T06:39:19.188Z,19.28
2022-09-05T06:40:58.961Z,19.33
2022-09-05T06:42:38.728Z,19.37
2022-09-05T06:44:18.553Z,19.45
2022-09-05T06:45:58.257Z,19.49
2022-09-05T06:47:38.057Z,19.54
2022-09-05T06:49:17.851Z,19.6
2022-09-05T06:50:57.562Z,19.66
2022-09-05T06:52:37.341Z,19.69
2022-09-05T06:54:17.112Z,19.76
2022-09-05T06:55:56.882Z,19.78
2022-09-05T06:57:36.645Z,19.83
2022-09-05T06:59:16.419Z,19.89
2022-09-05T07:00:56.193Z,19.93
2022-09-05T07:02:35.977Z,19.99
2022-09-05T07:04:15.789Z,20.01
2022-09-05T07:05:55.504Z,20.07
2022-09-05T07:07:35.291Z,20.12
2022-09-05T07:09:15.123Z,20.15
2022-09-05T07:10:54.814Z,20.19
2022-09-05T07:12:34.589Z,20.25
2022-09-05T07:14:14.358Z,20.27
2022-09-05T07:15:54.134Z,20.35
2022-09-05T07:17:33.893Z,20.37
2022-09-05T07:19:13.661Z,20.42
2022-09-05T07:20:53.444Z,20.43
2022-09-05T07:22:45.929Z,20.49
2022-09-05T07:24:12.980Z,20.55
2022-09-05T07:25:52.814Z,20.58
2022-09-05T07:27:32.511Z,20.61
2022-09-05T07:29:12.303Z,20.64
2022-09-05T07:30:52.068Z,20.68
2022-09-05T07:32:31.826Z,20.74
2022-09-05T07:34:11.593Z,20.77
2022-09-05T07:35:51.370Z,20.79
2022-09-05T07:37:31.136Z,20.81
2022-09-05T07:40:50.668Z,20.89
2022-09-05T07:42:30.442Z,20.95
2022-09-05T07:44:10.225Z,20.98
2022-09-05T07:45:49.992Z,20.99
2022-09-05T07:47:29.771Z,21.04
2022-09-05T07:50:49.363Z,21.11
2022-09-05T07:52:29.085Z,21.16
2022-09-05T07:54:08.840Z,21.18
2022-09-05T07:55:48.622Z,21.25
2022-09-05T07:57:28.394Z,21.28
2022-09-05T07:59:08.162Z,21.3
2022-09-05T08:00:47.937Z,21.32
2022-09-05T08:02:27.691Z,21.35
2022-09-05T08:04:07.471Z,21.39
2022-09-05T08:05:47.231Z,21.45
2022-09-05T08:07:27.012Z,21.44
2022-09-05T08:09:06.770Z,21.5
2022-09-05T08:10:46.553Z,21.53
2022-09-05T08:12:26.318Z,21.58
2022-09-05T08:14:06.116Z,21.59
2022-09-05T08:15:45.920Z,21.61
2022-09-05T08:17:25.635Z,21.66
2022-09-05T08:19:05.433Z,21.67
2022-09-05T08:20:45.167Z,21.74
2022-09-05T08:22:24.952Z,21.76
2022-09-05T08:24:04.716Z,21.77
2022-09-05T08:25:44.491Z,21.81
2022-09-05T08:27:24.248Z,21.84
2022-09-05T08:29:04.027Z,21.85
2022-09-05T08:32:23.569Z,21.94
2022-09-05T08:34:03.350Z,21.94
2022-09-05T08:35:43.092Z,22
2022-09-05T08:37:22.880Z,22
2022-09-05T08:39:02.648Z,22.06
2022-09-05T08:42:22.184Z,22.12
2022-09-05T08:44:01.951Z,22.14
2022-09-05T08:45:41.719Z,22.18
2022-09-05T08:47:21.495Z,22.19
2022-09-05T08:49:01.277Z,22.23
2022-09-05T08:50:41.037Z,22.28
2022-09-05T08:52:20.796Z,22.31
2022-09-05T08:54:00.628Z,22.33
2022-09-05T08:55:40.351Z,22.36
2022-09-05T08:57:20.164Z,22.43
2022-09-05T08:58:59.889Z,22.47
2022-09-05T09:00:39.663Z,22.48
2022-09-05T09:02:19.429Z,22.52
2022-09-05T09:03:59.282Z,22.56
2022-09-05T09:05:38.978Z,22.58
2022-09-05T09:07:18.777Z,22.61
2022-09-05T09:10:38.276Z,22.69
2022-09-05T09:12:18.059Z,22.7
2022-09-05T09:13:57.856Z,22.74
2022-09-05T09:15:37.583Z,22.78
2022-09-05T09:17:17.357Z,22.74
2022-09-05T09:18:57.131Z,22.71
2022-09-05T09:20:36.894Z,22.64
2022-09-05T09:22:16.670Z,22.58
2022-09-05T09:23:56.438Z,22.55
2022-09-05T09:25:36.224Z,22.47
2022-09-05T09:27:15.972Z,22.44
2022-09-05T09:30:35.507Z,22.45
2022-09-05T09:32:15.302Z,22.44
2022-09-05T09:33:55.054Z,22.44
2022-09-05T09:35:34.837Z,22.47
2022-09-05T09:37:14.592Z,22.51
2022-09-05T09:40:34.165Z,22.52
2022-09-05T09:42:13.915Z,22.56
2022-09-05T09:43:53.680Z,22.57
2022-09-05T09:45:33.451Z,22.61
2022-09-05T09:47:13.218Z,22.64
2022-09-05T09:50:32.770Z,22.69
2022-09-05T09:52:12.536Z,22.72
2022-09-05T09:53:52.344Z,22.75
2022-09-05T09:55:32.084Z,22.77
2022-09-05T09:57:11.832Z,22.81
2022-09-05T09:58:51.623Z,22.85
2022-09-05T10:00:31.428Z,22.88
2022-09-05T10:02:11.148Z,22.9
2022-09-05T10:03:50.918Z,22.91
2022-09-05T10:05:30.700Z,22.96
2022-09-05T10:07:10.467Z,22.99
2022-09-05T10:08:50.227Z,23.04
2022-09-05T10:10:30.011Z,23.03
2022-09-05T10:12:09.777Z,23.11
2022-09-05T10:13:49.572Z,23.11
2022-09-05T10:15:29.311Z,23.15
2022-09-05T10:17:09.100Z,23.18
2022-09-05T10:18:48.865Z,23.21
2022-09-05T10:20:28.621Z,23.24
2022-09-05T10:22:08.396Z,23.27
2022-09-05T10:23:48.166Z,23.31
2022-09-05T10:25:27.949Z,23.34
2022-09-05T10:27:07.748Z,23.37
2022-09-05T10:30:27.258Z,23.44
2022-09-05T10:32:07.021Z,23.49
2022-09-05T10:33:46.797Z,23.52
2022-09-05T10:35:26.557Z,23.54
2022-09-05T10:37:06.321Z,23.58
2022-09-05T10:38:46.096Z,23.61
2022-09-05T10:40:25.874Z,23.66
2022-09-05T10:42:05.632Z,23.69
2022-09-05T10:43:45.412Z,23.72
2022-09-05T10:45:25.186Z,23.73
2022-09-05T10:47:04.958Z,23.78
2022-09-05T10:48:44.716Z,23.83
2022-09-05T10:50:24.488Z,23.85
2022-09-05T10:52:04.260Z,23.89
2022-09-05T10:53:44.026Z,23.91
2022-09-05T10:55:23.821Z,23.95
2022-09-05T10:57:03.590Z,23.97
2022-09-05T10:58:43.359Z,24.03
2022-09-05T11:00:23.106Z,24.07
2022-09-05T11:02:02.948Z,24.1
2022-09-05T11:03:42.653Z,24.11
2022-09-05T11:05:22.433Z,24.17
2022-09-05T11:07:02.236Z,24.2
2022-09-05T11:10:21.736Z,24.29
2022-09-05T11:12:01.510Z,24.34
2022-09-05T11:13:41.268Z,24.34
2022-09-05T11:15:21.047Z,24.38
2022-09-05T11:17:00.818Z,24.44
2022-09-05T11:18:40.581Z,24.46
2022-09-05T11:20:20.345Z,24.51
2022-09-05T11:22:00.191Z,24.54
2022-09-05T11:23:39.906Z,24.54
2022-09-05T11:25:19.673Z,24.58
2022-09-05T11:26:59.455Z,24.6
2022-09-05T11:28:39.208Z,24.65
2022-09-05T11:30:18.988Z,24.67
2022-09-05T11:31:58.765Z,24.7
2022-09-05T11:33:38.519Z,24.74
2022-09-05T11:35:18.303Z,24.77
2022-09-05T11:36:58.071Z,24.78
2022-09-05T11:40:17.603Z,24.83
2022-09-05T11:41:57.378Z,24.87
2022-09-05T11:43:37.143Z,24.89
2022-09-05T11:45:16.912Z,24.93
2022-09-05T11:46:56.690Z,24.95
2022-09-05T11:50:16.240Z,25.01
2022-09-05T11:51:55.997Z,25.03
2022-09-05T11:53:35.759Z,25.05
2022-09-05T11:55:15.540Z,25.06
2022-09-05T11:56:55.345Z,25.1
2022-09-05T11:58:35.197Z,25.12
2022-09-05T12:00:15.003Z,25.15
2022-09-05T12:01:54.707Z,25.19
2022-09-05T12:03:34.391Z,25.2
2022-09-05T12:06:54.024Z,25.25
2022-09-05T12:10:13.526Z,25.28
2022-09-05T12:11:53.247Z,25.34
2022-09-05T12:13:33.106Z,25.34
2022-09-05T12:15:12.779Z,25.39
2022-09-05T12:16:52.653Z,25.41
2022-09-05T12:18:32.379Z,25.44
2022-09-05T12:20:12.186Z,25.46
2022-09-05T12:21:51.892Z,25.49
2022-09-05T12:23:31.686Z,25.5
2022-09-05T12:25:11.408Z,25.55
2022-09-05T12:26:51.186Z,25.56
2022-09-05T12:28:31.019Z,25.58
2022-09-05T12:30:10.728Z,25.61
2022-09-05T12:31:50.490Z,25.62
2022-09-05T12:33:30.258Z,25.64
2022-09-05T12:35:10.020Z,25.68
2022-09-05T12:36:49.796Z,25.7
2022-09-05T12:38:29.618Z,25.72
2022-09-05T12:40:09.337Z,25.74
2022-09-05T12:41:49.097Z,25.76
2022-09-05T12:43:28.883Z,25.8
2022-09-05T12:45:08.646Z,25.81
2022-09-05T12:46:48.438Z,25.85
2022-09-05T12:50:07.966Z,25.89
2022-09-05T12:51:47.734Z,25.9
2022-09-05T12:53:27.497Z,25.92
2022-09-05T12:55:07.287Z,25.96
2022-09-05T12:56:47.043Z,25.96
2022-09-05T12:58:26.813Z,25.99
2022-09-05T13:00:06.591Z,26.02
2022-09-05T13:01:46.363Z,26.04
2022-09-05T13:05:05.903Z,26.08
2022-09-05T13:06:45.660Z,26.1
2022-09-05T13:10:05.210Z,26.18
2022-09-05T13:11:44.979Z,26.18
2022-09-05T13:13:24.747Z,26.19
2022-09-05T13:16:44.295Z,26.24
2022-09-05T13:18:24.068Z,26.25
2022-09-05T13:20:03.844Z,26.28
2022-09-05T13:21:43.592Z,26.31
2022-09-05T13:23:23.372Z,26.33
2022-09-05T13:25:03.147Z,26.36
2022-09-05T13:26:42.907Z,26.37
2022-09-05T13:28:22.693Z,26.41
2022-09-05T13:30:02.448Z,26.42
2022-09-05T13:31:42.229Z,26.45
2022-09-05T13:33:21.991Z,26.49
2022-09-05T13:35:01.758Z,26.51
2022-09-05T13:36:41.541Z,26.53
2022-09-05T13:38:21.295Z,26.56
2022-09-05T13:40:01.085Z,26.59
2022-09-05T13:41:40.856Z,26.58
2022-09-05T13:43:20.622Z,26.62
2022-09-05T13:45:00.445Z,26.64
2022-09-05T13:46:40.154Z,26.66
2022-09-05T13:49:59.699Z,26.68
2022-09-05T13:51:39.475Z,26.71
2022-09-05T13:53:19.239Z,26.73
2022-09-05T13:54:59.058Z,26.75
2022-09-05T13:56:38.778Z,26.75
2022-09-05T13:58:18.573Z,26.77
2022-09-05T13:59:58.319Z,26.8
2022-09-05T14:01:38.110Z,26.81
2022-09-05T14:03:17.856Z,26.81
2022-09-05T14:04:57.634Z,26.81
2022-09-05T14:06:37.403Z,26.85
2022-09-05T14:08:17.189Z,26.87
2022-09-05T14:09:56.959Z,26.87
2022-09-05T14:11:36.728Z,26.86
2022-09-05T14:13:16.488Z,26.88
2022-09-05T14:14:56.249Z,26.9
2022-09-05T14:16:36.026Z,26.92
2022-09-05T14:18:15.795Z,26.92
2022-09-05T14:19:55.570Z,26.93
2022-09-05T14:21:35.338Z,26.93
2022-09-05T14:23:15.104Z,26.93
2022-09-05T14:24:54.870Z,26.92
2022-09-05T14:26:34.644Z,26.93
2022-09-05T14:28:14.426Z,26.92
2022-09-05T14:29:54.236Z,26.92
2022-09-05T14:31:33.963Z,26.92
2022-09-05T14:33:13.748Z,26.92
2022-09-05T14:34:53.501Z,26.95
2022-09-05T14:36:33.276Z,26.93
2022-09-05T14:38:13.049Z,26.93
2022-09-05T14:39:52.818Z,26.94
2022-09-05T14:41:32.577Z,26.95
2022-09-05T14:43:12.410Z,26.97
2022-09-05T14:44:52.127Z,26.97
2022-09-05T14:46:31.902Z,26.98
2022-09-05T14:49:51.446Z,27
2022-09-05T14:51:31.217Z,27
2022-09-05T14:53:10.989Z,27
2022-09-05T14:54:50.751Z,27.01
2022-09-05T14:56:30.513Z,27.03
2022-09-05T14:58:10.289Z,27.05
2022-09-05T14:59:50.061Z,27.06
2022-09-05T15:01:29.862Z,27.06
2022-09-05T15:03:09.635Z,27.08
2022-09-05T15:04:49.370Z,27.09
2022-09-05T15:06:29.135Z,27.09
2022-09-05T15:09:48.696Z,27.12
2022-09-05T15:11:28.461Z,27.13
2022-09-05T15:13:08.233Z,27.16
2022-09-05T15:14:48.003Z,27.18
2022-09-05T15:16:27.768Z,27.19
2022-09-05T15:18:07.567Z,27.21
2022-09-05T15:19:47.315Z,27.21
2022-09-05T15:21:27.073Z,27.25
2022-09-05T15:23:06.860Z,27.24
2022-09-05T15:24:46.629Z,27.26
2022-09-05T15:26:26.384Z,27.26
2022-09-05T15:29:45.943Z,27.29
2022-09-05T15:31:25.698Z,27.3
2022-09-05T15:33:05.476Z,27.33
2022-09-05T15:34:45.239Z,27.35
2022-09-05T15:36:25.017Z,27.35
2022-09-05T15:38:04.792Z,27.36
2022-09-05T15:39:44.560Z,27.38
2022-09-05T15:41:24.327Z,27.38
2022-09-05T15:43:04.095Z,27.38
2022-09-05T15:44:43.872Z,27.4
2022-09-05T15:46:23.637Z,27.37
2022-09-05T15:48:03.407Z,27.4
2022-09-05T15:49:43.179Z,27.39
2022-09-05T15:51:22.940Z,27.41
2022-09-05T15:54:42.504Z,27.41
2022-09-05T15:56:22.268Z,27.44
2022-09-05T15:58:02.024Z,27.42
2022-09-05T15:59:41.814Z,27.44
2022-09-05T16:01:21.582Z,27.42
2022-09-05T16:03:01.335Z,27.43
2022-09-05T16:04:41.111Z,27.45
2022-09-05T16:06:20.897Z,27.44
2022-09-05T16:09:40.425Z,27.47
2022-09-05T16:11:20.203Z,27.48
2022-09-05T16:12:59.975Z,27.51
2022-09-05T16:14:39.738Z,27.49
2022-09-05T16:16:19.509Z,27.49
2022-09-05T16:17:59.283Z,27.49
2022-09-05T16:19:39.063Z,27.5
2022-09-05T16:21:18.822Z,27.53
2022-09-05T16:22:58.598Z,27.54
2022-09-05T16:24:38.368Z,27.52
2022-09-05T16:26:18.131Z,27.56
2022-09-05T16:27:57.908Z,27.57
2022-09-05T16:29:37.685Z,27.58
2022-09-05T16:31:17.446Z,27.58
2022-09-05T16:32:57.214Z,27.58
2022-09-05T16:34:36.997Z,27.6
2022-09-05T16:36:16.752Z,27.58
2022-09-05T16:39:36.302Z,27.58
2022-09-05T16:41:16.084Z,27.58
2022-09-05T16:42:55.839Z,27.55
2022-09-05T16:44:35.599Z,27.54
2022-09-05T16:46:15.377Z,27.53
2022-09-05T16:49:34.928Z,27.49
2022-09-05T16:51:14.700Z,27.49
2022-09-05T16:52:54.466Z,27.44
2022-09-05T16:54:34.238Z,27.43
2022-09-05T16:56:13.993Z,27.43
2022-09-05T16:59:33.552Z,27.36
2022-09-05T17:01:13.320Z,27.35
2022-09-05T17:02:53.084Z,27.36
2022-09-05T17:04:32.849Z,27.35
2022-09-05T17:06:12.626Z,27.31
2022-09-05T17:09:32.209Z,27.27
2022-09-05T17:11:11.934Z,27.25
2022-09-05T17:14:31.469Z,27.25
2022-09-05T17:16:11.249Z,27.2
2022-09-05T17:17:51.014Z,27.2
2022-09-05T17:19:30.781Z,27.19
2022-09-05T17:21:10.566Z,27.16
2022-09-05T17:22:50.333Z,27.16
2022-09-05T17:24:30.131Z,27.12
2022-09-05T17:26:09.876Z,27.1
2022-09-05T17:29:29.437Z,27.03
2022-09-05T17:31:09.178Z,26.97
2022-09-05T17:32:48.953Z,26.92
2022-09-05T17:34:28.714Z,26.89
2022-09-05T17:36:08.487Z,26.85
2022-09-05T17:37:48.243Z,26.83
2022-09-05T17:39:28.043Z,26.78
2022-09-05T17:41:07.797Z,26.74
2022-09-05T17:42:47.569Z,26.7
2022-09-05T17:44:27.335Z,26.69
2022-09-05T17:46:07.101Z,26.66
2022-09-05T17:47:46.857Z,26.6
2022-09-05T17:49:26.620Z,26.6
2022-09-05T17:51:06.397Z,26.55
2022-09-05T17:52:46.167Z,26.5
2022-09-05T17:54:25.919Z,26.47
2022-09-05T17:56:05.715Z,26.42
2022-09-05T17:59:25.234Z,26.39
2022-09-05T18:01:05.010Z,26.35
2022-09-05T18:02:44.782Z,26.31
2022-09-05T18:04:24.566Z,26.3
2022-09-05T18:06:04.310Z,26.27
2022-09-05T18:09:23.838Z,26.18
2022-09-05T18:11:03.615Z,26.12
2022-09-05T18:12:43.403Z,26.08
2022-09-05T18:14:23.229Z,26.01
2022-09-05T18:16:02.906Z,25.97
2022-09-05T18:21:02.254Z,25.82
2022-09-05T18:22:42.025Z,25.77
2022-09-05T18:24:21.820Z,25.73
2022-09-05T18:26:01.609Z,25.65
2022-09-05T18:29:21.098Z,25.58
2022-09-05T18:31:00.888Z,25.53
2022-09-05T18:32:40.658Z,25.5
2022-09-05T18:34:20.437Z,25.44
2022-09-05T18:36:00.192Z,25.41
2022-09-05T18:39:19.753Z,25.32
2022-09-05T18:40:59.474Z,25.28
2022-09-05T18:42:39.239Z,25.25
2022-09-05T18:44:19.006Z,25.21
2022-09-05T18:45:58.752Z,25.15
2022-09-05T18:49:18.333Z,25.09
2022-09-05T18:50:58.032Z,25.05
2022-09-05T18:52:37.827Z,25.02
2022-09-05T18:54:17.594Z,24.98
2022-09-05T18:55:57.400Z,24.93
2022-09-05T18:57:37.109Z,24.89
2022-09-05T18:59:16.928Z,24.85
2022-09-05T19:00:56.717Z,24.82
2022-09-05T19:02:36.489Z,24.79
2022-09-05T19:04:16.184Z,24.75
2022-09-05T19:05:55.984Z,24.73
2022-09-05T19:07:35.779Z,24.68
2022-09-05T19:09:15.483Z,24.65
2022-09-05T19:10:55.257Z,24.62
2022-09-05T19:12:35.106Z,24.58
2022-09-05T19:14:14.867Z,24.54
2022-09-05T19:15:54.662Z,24.52
2022-09-05T19:19:14.188Z,24.46
2022-09-05T19:20:53.847Z,24.42
2022-09-05T19:22:33.701Z,24.37
2022-09-05T19:24:13.387Z,24.34
2022-09-05T19:25:53.145Z,24.31
2022-09-05T19:27:32.914Z,24.27
2022-09-05T19:30:52.453Z,24.22
2022-09-05T19:32:32.233Z,24.19
2022-09-05T19:34:11.986Z,24.14
2022-09-05T19:35:51.747Z,24.1
2022-09-05T19:37:31.525Z,24.09
2022-09-05T19:39:11.289Z,24.05
2022-09-05T19:40:51.067Z,24
2022-09-05T19:42:30.827Z,23.99
2022-09-05T19:44:10.600Z,23.96
2022-09-05T19:45:50.353Z,23.92
2022-09-05T19:49:09.903Z,23.86
2022-09-05T19:50:49.657Z,23.83
2022-09-05T19:52:29.428Z,23.8
2022-09-05T19:54:09.191Z,23.77
2022-09-05T19:55:48.970Z,23.73
2022-09-05T19:59:08.509Z,23.69
2022-09-05T20:00:48.262Z,23.64
2022-09-05T20:02:28.029Z,23.61
2022-09-05T20:04:07.849Z,23.59
2022-09-05T20:05:47.577Z,23.54
2022-09-05T20:07:27.341Z,23.53
2022-09-05T20:09:07.109Z,23.5
2022-09-05T20:12:26.656Z,23.43
2022-09-05T20:14:06.416Z,23.41
2022-09-05T20:15:46.174Z,23.39
2022-09-05T20:17:25.938Z,23.37
2022-09-05T20:19:05.703Z,23.33
2022-09-05T20:20:45.485Z,23.3
2022-09-05T20:22:25.242Z,23.28
2022-09-05T20:24:05.021Z,23.23
2022-09-05T20:25:44.793Z,23.22
2022-09-05T20:29:04.318Z,23.17
2022-09-05T20:30:44.081Z,23.13
2022-09-05T20:32:23.849Z,23.1
2022-09-05T20:34:03.619Z,23.08
2022-09-05T20:35:43.385Z,23.05
2022-09-05T20:37:23.156Z,23.03
2022-09-05T20:39:02.919Z,22.98
2022-09-05T20:40:42.706Z,22.98
2022-09-05T20:42:22.448Z,22.95
2022-09-05T20:45:41.977Z,22.9
2022-09-05T20:49:01.536Z,22.83
2022-09-05T20:50:41.290Z,22.82
2022-09-05T20:54:00.828Z,22.76
2022-09-05T20:55:40.598Z,22.73
2022-09-05T20:59:00.132Z,22.69
2022-09-05T21:00:39.887Z,22.66
2022-09-05T21:02:19.672Z,22.62
2022-09-05T21:03:59.429Z,22.61
2022-09-05T21:05:39.206Z,22.59
2022-09-05T21:08:58.739Z,22.53
2022-09-05T21:10:38.507Z,22.5
2022-09-05T21:12:18.273Z,22.48
2022-09-05T21:13:58.040Z,22.45
2022-09-05T21:15:37.800Z,22.43
2022-09-05T21:17:17.580Z,22.4
2022-09-05T21:18:57.345Z,22.38
2022-09-05T21:20:37.111Z,22.35
2022-09-05T21:22:16.887Z,22.33
2022-09-05T21:23:56.661Z,22.3
2022-09-05T21:28:55.954Z,22.21
2022-09-05T21:30:35.704Z,22.2
2022-09-05T21:32:15.478Z,22.16
2022-09-05T21:33:55.258Z,22.13
2022-09-05T21:35:35.026Z,22.12
2022-09-05T21:38:54.580Z,22.07
2022-09-05T21:40:34.308Z,22.04
2022-09-05T21:42:14.079Z,22.01
2022-09-05T21:43:53.864Z,22
2022-09-05T21:45:33.623Z,21.97
2022-09-05T21:47:13.399Z,21.94
2022-09-05T21:48:53.159Z,21.91
2022-09-05T21:50:32.915Z,21.88
2022-09-05T21:52:12.701Z,21.86
2022-09-05T21:53:52.452Z,21.83
2022-09-05T21:55:32.237Z,21.81
2022-09-05T21:58:51.756Z,21.77
2022-09-05T22:00:31.529Z,21.75
2022-09-05T22:02:11.313Z,21.72
2022-09-05T22:05:30.827Z,21.68
2022-09-05T22:08:50.377Z,21.63
2022-09-05T22:10:30.129Z,21.59
2022-09-05T22:12:09.917Z,21.58
2022-09-05T22:13:49.667Z,21.56
2022-09-05T22:15:29.431Z,21.54
2022-09-05T22:18:48.961Z,21.5
2022-09-05T22:20:28.730Z,21.45
2022-09-05T22:22:08.503Z,21.45
2022-09-05T22:23:48.284Z,21.42
2022-09-05T22:25:28.045Z,21.41
2022-09-05T22:28:47.579Z,21.35
2022-09-05T22:30:27.337Z,21.32
2022-09-05T22:32:07.113Z,21.29
2022-09-05T22:33:46.869Z,21.29
2022-09-05T22:35:26.640Z,21.25
2022-09-05T22:38:46.177Z,21.19
2022-09-05T22:40:25.946Z,21.17
2022-09-05T22:42:05.716Z,21.17
2022-09-05T22:43:45.488Z,21.12
2022-09-05T22:45:25.264Z,21.12
2022-09-05T22:47:05.016Z,21.1
2022-09-05T22:48:44.790Z,21.07
2022-09-05T22:50:24.552Z,21.04
2022-09-05T22:52:04.318Z,21.02
2022-09-05T22:53:44.081Z,21.02
2022-09-05T22:55:23.858Z,20.99
2022-09-05T22:58:43.381Z,20.92
2022-09-05T23:00:23.157Z,20.92
2022-09-05T23:02:02.932Z,20.88
2022-09-05T23:03:42.699Z,20.88
2022-09-05T23:08:41.992Z,20.81
2022-09-05T23:10:21.761Z,20.79
2022-09-05T23:12:01.525Z,20.77
2022-09-05T23:13:41.300Z,20.73
2022-09-05T23:15:21.068Z,20.71
2022-09-05T23:18:40.592Z,20.68
2022-09-05T23:20:20.365Z,20.66
2022-09-05T23:22:00.138Z,20.63
2022-09-05T23:23:39.899Z,20.63
2022-09-05T23:25:19.674Z,20.6
2022-09-05T23:28:39.209Z,20.55
2022-09-05T23:30:18.972Z,20.54
2022-09-05T23:31:58.738Z,20.52
2022-09-05T23:33:38.508Z,20.48
2022-09-05T23:35:18.265Z,20.45
2022-09-05T23:36:58.051Z,20.45
2022-09-05T23:38:37.816Z,20.43
2022-09-05T23:40:17.582Z,20.41
2022-09-05T23:41:57.374Z,20.37
2022-09-05T23:43:37.112Z,20.36
2022-09-05T23:45:16.885Z,20.34
2022-09-05T23:46:56.656Z,20.31
2022-09-05T23:48:36.419Z,20.31
2022-09-05T23:50:16.179Z,20.28
2022-09-05T23:51:55.942Z,20.27
2022-09-05T23:53:35.708Z,20.26
2022-09-05T23:58:35.027Z,20.17
